Terminal Aerodrome Forecast
Issued by NWS Wakefield, VA

Home | Current Version | Previous Version | Text Only | Print | Product List | Glossary On
Versions: 1 2 3 4 5 6 7 8 9 10 11 12 13 14 15
000
FTUS41 KAKQ 291604 AAA
TAFRIC
TAF AMD
KRIC 291604Z 2916/3012 12006KT P6SM VCSH SCT025 BKN035
      TEMPO 2916/2919 4SM SHRA BKN025
     FM291900 10004KT P6SM -SHRA BKN030 OVC200
     FM292200 09005KT 4SM RA BR OVC025=

USA.gov is the U.S. government's official web portal to all federal, state and local government web resources and services.